Kaami — C6VO9 — position and weather

sailwx.info

Track history (hours):
 
Tides and Currents Weather Stations Pressure Air Temp Water Temp Dewpoint Dewpoint Depression Visibility Wind Speed Wind Dir Waves Ship Positions

Kaami

Last reported at 2015-Jan-28 22:29 UTC. Time now 2015-Jan-30 15:37 UTC.
Position N 59°00' E 005°01'.

Length 90 m; draft 5.8 m.

Type: Cargo ship. MMSI: 308542000.

Date/timePositionNaut miles runAvg speedWind from/ knotsBaromVisibWave heightAir tempDewpointWater temp
2015-Jan-28 22:29N 59°00' E 005°01'7 7.1
2015-Jan-28 21:26N 58°54' E 005°08'7 7.8
2015-Jan-28 20:32N 58°48' E 005°15'17 7.9
2015-Jan-28 18:23N 58°33' E 005°32'6 7.7
2015-Jan-28 17:33N 58°28' E 005°40'8 7.7
2015-Jan-28 16:33N 58°23' E 005°50'8 7.6
2015-Jan-28 15:33N 58°18' E 006°00'7 7.3
2015-Jan-28 14:33N 58°13' E 006°10'8 8.2
2015-Jan-28 13:33N 58°08' E 006°23'147 8.1
2015-Jan-27 19:31N 57°46' E 010°56'9 9.8
2015-Jan-27 18:33N 57°42' E 011°11'10 9.6
2015-Jan-27 17:33N 57°37' E 011°27'7 7.2
2015-Jan-27 16:31N 57°35' E 011°41'0 0.0
2015-Jan-27 15:31N 57°35' E 011°41'6 6.8
2015-Jan-27 14:33N 57°29' E 011°40'1110.5
2015-Jan-27 13:33N 57°19' E 011°47'1010.3
2015-Jan-27 12:33N 57°09' E 011°54'1010.2
2015-Jan-27 11:33N 56°60' E 011°59'1010.2
2015-Jan-27 10:33N 56°50' E 012°05'10 9.9
2015-Jan-27 09:33N 56°41' E 012°11'10 9.5
2015-Jan-27 08:33N 56°31' E 012°16'10 9.5
2015-Jan-27 07:33N 56°22' E 012°21'10 9.5
2015-Jan-27 06:33N 56°14' E 012°27'9 8.7
2015-Jan-27 05:33N 56°06' E 012°35'9 8.9
2015-Jan-27 04:33N 55°58' E 012°42'10 9.5
2015-Jan-27 03:33N 55°49' E 012°43'10 9.5
2015-Jan-27 02:33N 55°39' E 012°42'9 8.6
2015-Jan-27 01:33N 55°30' E 012°43'10 9.6
2015-Jan-27 00:33N 55°21' E 012°41'8 8.5
2015-Jan-26 23:33N 55°16' E 012°53'10 9.9
2015-Jan-26 22:32N 55°16' E 013°11'56 8.0
2015-Jan-26 15:33N 55°29' E 014°47'8 7.9
2015-Jan-26 14:33N 55°34' E 014°58'  
2015-Jan-23 18:09N 58°38' E 017°09'610.2
2015-Jan-23 17:33N 58°37' E 016°57'1010.5
2015-Jan-23 16:33N 58°38' E 016°37'1010.4
2015-Jan-23 15:33N 58°38' E 016°17'3 2.8
2015-Jan-23 14:28N 58°36' E 016°11'0 0.0
2015-Jan-23 13:28N 58°36' E 016°11'0 0.0
2015-Jan-23 12:28N 58°36' E 016°11'0 0.0
2015-Jan-23 11:28N 58°36' E 016°12'0 0.0
2015-Jan-23 10:28N 58°36' E 016°12'0 0.0
2015-Jan-23 09:28N 58°36' E 016°12'0 0.0
2015-Jan-23 08:28N 58°36' E 016°11'0 0.0
2015-Jan-23 07:28N 58°36' E 016°12'0 0.0
2015-Jan-23 06:28N 58°36' E 016°12'0 0.0
2015-Jan-23 05:28N 58°36' E 016°12'0 0.0
2015-Jan-23 04:33N 58°36' E 016°12'0 0.0
2015-Jan-23 03:28N 58°36' E 016°12'0 0.0
2015-Jan-23 02:27N 58°36' E 016°12'0 0.0
2015-Jan-23 01:33N 58°36' E 016°12'0 0.0
2015-Jan-23 00:33N 58°36' E 016°12'0 0.0
2015-Jan-22 23:33N 58°36' E 016°12'0 0.0
2015-Jan-22 22:33N 58°36' E 016°12'0 0.0
2015-Jan-22 21:33N 58°36' E 016°11'0 0.0
2015-Jan-22 20:33N 58°36' E 016°12'0 0.0
2015-Jan-22 19:33N 58°36' E 016°12'0 0.0
2015-Jan-22 18:33N 58°36' E 016°12'0 0.0
2015-Jan-22 17:27N 58°36' E 016°12'0 0.0
2015-Jan-22 16:33N 58°36' E 016°12'0 0.0
2015-Jan-22 15:33N 58°36' E 016°12'0 0.0
2015-Jan-22 14:33N 58°36' E 016°12'0 0.0
2015-Jan-22 13:33N 58°36' E 016°12'0 0.0
2015-Jan-22 12:33N 58°36' E 016°11'0 0.0
2015-Jan-22 11:33N 58°36' E 016°12'0 0.0
2015-Jan-22 10:33N 58°36' E 016°12'0 0.0
2015-Jan-22 09:33N 58°36' E 016°12'0 0.0
2015-Jan-22 08:33N 58°36' E 016°12'0 0.0
2015-Jan-22 07:33N 58°36' E 016°12'0 0.0
2015-Jan-22 06:33N 58°36' E 016°12'0 0.0
2015-Jan-22 05:27N 58°36' E 016°12'0 0.0
2015-Jan-22 04:33N 58°36' E 016°11'0 0.0
2015-Jan-22 03:33N 58°36' E 016°11'0 0.0
2015-Jan-22 02:27N 58°36' E 016°12'0 0.0
2015-Jan-22 01:33N 58°36' E 016°12'0 0.0
2015-Jan-22 00:33N 58°36' E 016°11'0 0.0
2015-Jan-21 23:27N 58°36' E 016°12'0 0.0
2015-Jan-21 22:45N 58°36' E 016°11'0 0.0
2015-Jan-21 22:27N 58°36' E 016°11'0 0.0
2015-Jan-21 21:33N 58°36' E 016°12'0 0.0
2015-Jan-21 20:33N 58°36' E 016°12'0 0.0
2015-Jan-21 19:33N 58°36' E 016°12'0 0.0
2015-Jan-21 18:33N 58°36' E 016°12'0 0.0
2015-Jan-21 17:32N 58°36' E 016°12'0 0.0
2015-Jan-21 16:32N 58°36' E 016°12'0 0.0
2015-Jan-21 15:32N 58°36' E 016°12'0 0.0
2015-Jan-21 14:32N 58°36' E 016°12'0 0.0
2015-Jan-21 13:32N 58°36' E 016°12'0 0.0
2015-Jan-21 12:26N 58°36' E 016°12'0 0.0
2015-Jan-21 11:32N 58°36' E 016°12'0 0.0
2015-Jan-21 10:26N 58°36' E 016°12'0 0.0
2015-Jan-21 09:32N 58°36' E 016°12'0 0.0
2015-Jan-21 08:32N 58°36' E 016°12'0 0.0
2015-Jan-21 07:26N 58°36' E 016°12'0 0.0
2015-Jan-21 06:32N 58°36' E 016°12'0 0.0
2015-Jan-21 05:32N 58°36' E 016°12'0 0.0
2015-Jan-21 04:32N 58°36' E 016°12'0 0.0
2015-Jan-21 03:20N 58°36' E 016°12'0 0.0
2015-Jan-21 02:32N 58°36' E 016°12'0 0.0
2015-Jan-21 01:32N 58°36' E 016°12'0 0.0
2015-Jan-21 00:26N 58°36' E 016°11'0 0.0
2015-Jan-20 23:26N 58°36' E 016°11'0 0.0
2015-Jan-20 22:26N 58°36' E 016°11'0 0.0
2015-Jan-20 21:32N 58°36' E 016°12'0 0.0
2015-Jan-20 20:32N 58°36' E 016°12'0 0.0
2015-Jan-20 19:26N 58°36' E 016°12'0 0.0
2015-Jan-20 18:26N 58°36' E 016°12'0 0.5
2015-Jan-20 17:33N 58°37' E 016°11'4 4.1
2015-Jan-20 16:33N 58°38' E 016°19'1010.1
2015-Jan-20 15:33N 58°38' E 016°38'1110.5
2015-Jan-20 14:33N 58°37' E 016°58'71 8.8
2015-Jan-20 06:30N 57°27' E 017°21'1111.1
2015-Jan-20 05:32N 57°16' E 017°18'119 9.7
2015-Jan-19 17:20N 55°36' E 015°22'910.8
2015-Jan-19 16:33N 55°32' E 015°08'1110.7
2015-Jan-19 15:33N 55°27' E 014°52'1110.7
2015-Jan-19 14:33N 55°21' E 014°36'1111.2
2015-Jan-19 13:33N 55°12' E 014°24'1110.9
2015-Jan-19 12:33N 55°04' E 014°11'1110.7
2015-Jan-19 11:33N 54°59' E 013°55'1110.5
2015-Jan-19 10:33N 54°56' E 013°37'2110.0
2015-Jan-19 08:27N 54°48' E 013°03'9 9.7
2015-Jan-19 07:33N 54°44' E 012°50'1010.0
2015-Jan-19 06:33N 54°38' E 012°36'10 9.8
2015-Jan-19 05:33N 54°33' E 012°22'10 9.6
2015-Jan-19 04:33N 54°26' E 012°11'10 9.5
2015-Jan-19 03:33N 54°25' E 011°55'1010.0
2015-Jan-19 02:33N 54°27' E 011°38'1010.1
2015-Jan-19 01:33N 54°31' E 011°23'10 9.6
2015-Jan-19 00:33N 54°35' E 011°07'10 9.9
2015-Jan-18 23:33N 54°34' E 010°50'1010.4
2015-Jan-18 22:33N 54°33' E 010°32'  
Track history (hours):
 
Tides and Currents Weather Stations Pressure Air Temp Water Temp Dewpoint Dewpoint Depression Visibility Wind Speed Wind Dir Waves Ship Positions

Kaami

Last reported at 2015-Jan-28 22:29 UTC. Time now 2015-Jan-30 15:37 UTC.
Position N 59°00' E 005°01'.

Length 90 m; draft 5.8 m.

Type: Cargo ship. MMSI: 308542000.

Date/timePositionNaut miles runAvg speedWind from/ knotsBaromVisibWave heightAir tempDewpointWater temp
2015-Jan-28 22:29N 59°00' E 005°01'7 7.1
2015-Jan-28 21:26N 58°54' E 005°08'7 7.8
2015-Jan-28 20:32N 58°48' E 005°15'17 7.9
2015-Jan-28 18:23N 58°33' E 005°32'6 7.7
2015-Jan-28 17:33N 58°28' E 005°40'8 7.7
2015-Jan-28 16:33N 58°23' E 005°50'8 7.6
2015-Jan-28 15:33N 58°18' E 006°00'7 7.3
2015-Jan-28 14:33N 58°13' E 006°10'8 8.2
2015-Jan-28 13:33N 58°08' E 006°23'147 8.1
2015-Jan-27 19:31N 57°46' E 010°56'9 9.8
2015-Jan-27 18:33N 57°42' E 011°11'10 9.6
2015-Jan-27 17:33N 57°37' E 011°27'7 7.2
2015-Jan-27 16:31N 57°35' E 011°41'0 0.0
2015-Jan-27 15:31N 57°35' E 011°41'6 6.8
2015-Jan-27 14:33N 57°29' E 011°40'1110.5
2015-Jan-27 13:33N 57°19' E 011°47'1010.3
2015-Jan-27 12:33N 57°09' E 011°54'1010.2
2015-Jan-27 11:33N 56°60' E 011°59'1010.2
2015-Jan-27 10:33N 56°50' E 012°05'10 9.9
2015-Jan-27 09:33N 56°41' E 012°11'10 9.5
2015-Jan-27 08:33N 56°31' E 012°16'10 9.5
2015-Jan-27 07:33N 56°22' E 012°21'10 9.5
2015-Jan-27 06:33N 56°14' E 012°27'9 8.7
2015-Jan-27 05:33N 56°06' E 012°35'9 8.9
2015-Jan-27 04:33N 55°58' E 012°42'10 9.5
2015-Jan-27 03:33N 55°49' E 012°43'10 9.5
2015-Jan-27 02:33N 55°39' E 012°42'9 8.6
2015-Jan-27 01:33N 55°30' E 012°43'10 9.6
2015-Jan-27 00:33N 55°21' E 012°41'8 8.5
2015-Jan-26 23:33N 55°16' E 012°53'10 9.9
2015-Jan-26 22:32N 55°16' E 013°11'56 8.0
2015-Jan-26 15:33N 55°29' E 014°47'8 7.9
2015-Jan-26 14:33N 55°34' E 014°58'  
2015-Jan-23 18:09N 58°38' E 017°09'610.2
2015-Jan-23 17:33N 58°37' E 016°57'1010.5
2015-Jan-23 16:33N 58°38' E 016°37'1010.4
2015-Jan-23 15:33N 58°38' E 016°17'3 2.8
2015-Jan-23 14:28N 58°36' E 016°11'0 0.0
2015-Jan-23 13:28N 58°36' E 016°11'0 0.0
2015-Jan-23 12:28N 58°36' E 016°11'0 0.0
2015-Jan-23 11:28N 58°36' E 016°12'0 0.0
2015-Jan-23 10:28N 58°36' E 016°12'0 0.0
2015-Jan-23 09:28N 58°36' E 016°12'0 0.0
2015-Jan-23 08:28N 58°36' E 016°11'0 0.0
2015-Jan-23 07:28N 58°36' E 016°12'0 0.0
2015-Jan-23 06:28N 58°36' E 016°12'0 0.0
2015-Jan-23 05:28N 58°36' E 016°12'0 0.0
2015-Jan-23 04:33N 58°36' E 016°12'0 0.0
2015-Jan-23 03:28N 58°36' E 016°12'0 0.0
2015-Jan-23 02:27N 58°36' E 016°12'0 0.0
2015-Jan-23 01:33N 58°36' E 016°12'0 0.0
2015-Jan-23 00:33N 58°36' E 016°12'0 0.0
2015-Jan-22 23:33N 58°36' E 016°12'0 0.0
2015-Jan-22 22:33N 58°36' E 016°12'0 0.0
2015-Jan-22 21:33N 58°36' E 016°11'0 0.0
2015-Jan-22 20:33N 58°36' E 016°12'0 0.0
2015-Jan-22 19:33N 58°36' E 016°12'0 0.0
2015-Jan-22 18:33N 58°36' E 016°12'0 0.0
2015-Jan-22 17:27N 58°36' E 016°12'0 0.0
2015-Jan-22 16:33N 58°36' E 016°12'0 0.0
2015-Jan-22 15:33N 58°36' E 016°12'0 0.0
2015-Jan-22 14:33N 58°36' E 016°12'0 0.0
2015-Jan-22 13:33N 58°36' E 016°12'0 0.0
2015-Jan-22 12:33N 58°36' E 016°11'0 0.0
2015-Jan-22 11:33N 58°36' E 016°12'0 0.0
2015-Jan-22 10:33N 58°36' E 016°12'0 0.0
2015-Jan-22 09:33N 58°36' E 016°12'0 0.0
2015-Jan-22 08:33N 58°36' E 016°12'0 0.0
2015-Jan-22 07:33N 58°36' E 016°12'0 0.0
2015-Jan-22 06:33N 58°36' E 016°12'0 0.0
2015-Jan-22 05:27N 58°36' E 016°12'0 0.0
2015-Jan-22 04:33N 58°36' E 016°11'0 0.0
2015-Jan-22 03:33N 58°36' E 016°11'0 0.0
2015-Jan-22 02:27N 58°36' E 016°12'0 0.0
2015-Jan-22 01:33N 58°36' E 016°12'0 0.0
2015-Jan-22 00:33N 58°36' E 016°11'0 0.0
2015-Jan-21 23:27N 58°36' E 016°12'0 0.0
2015-Jan-21 22:45N 58°36' E 016°11'0 0.0
2015-Jan-21 22:27N 58°36' E 016°11'0 0.0
2015-Jan-21 21:33N 58°36' E 016°12'0 0.0
2015-Jan-21 20:33N 58°36' E 016°12'0 0.0
2015-Jan-21 19:33N 58°36' E 016°12'0 0.0
2015-Jan-21 18:33N 58°36' E 016°12'0 0.0
2015-Jan-21 17:32N 58°36' E 016°12'0 0.0
2015-Jan-21 16:32N 58°36' E 016°12'0 0.0
2015-Jan-21 15:32N 58°36' E 016°12'0 0.0
2015-Jan-21 14:32N 58°36' E 016°12'0 0.0
2015-Jan-21 13:32N 58°36' E 016°12'0 0.0
2015-Jan-21 12:26N 58°36' E 016°12'0 0.0
2015-Jan-21 11:32N 58°36' E 016°12'0 0.0
2015-Jan-21 10:26N 58°36' E 016°12'0 0.0
2015-Jan-21 09:32N 58°36' E 016°12'0 0.0
2015-Jan-21 08:32N 58°36' E 016°12'0 0.0
2015-Jan-21 07:26N 58°36' E 016°12'0 0.0
2015-Jan-21 06:32N 58°36' E 016°12'0 0.0
2015-Jan-21 05:32N 58°36' E 016°12'0 0.0
2015-Jan-21 04:32N 58°36' E 016°12'0 0.0
2015-Jan-21 03:20N 58°36' E 016°12'0 0.0
2015-Jan-21 02:32N 58°36' E 016°12'0 0.0
2015-Jan-21 01:32N 58°36' E 016°12'0 0.0
2015-Jan-21 00:26N 58°36' E 016°11'0 0.0
2015-Jan-20 23:26N 58°36' E 016°11'0 0.0
2015-Jan-20 22:26N 58°36' E 016°11'0 0.0
2015-Jan-20 21:32N 58°36' E 016°12'0 0.0
2015-Jan-20 20:32N 58°36' E 016°12'0 0.0
2015-Jan-20 19:26N 58°36' E 016°12'0 0.0
2015-Jan-20 18:26N 58°36' E 016°12'0 0.5
2015-Jan-20 17:33N 58°37' E 016°11'4 4.1
2015-Jan-20 16:33N 58°38' E 016°19'1010.1
2015-Jan-20 15:33N 58°38' E 016°38'1110.5
2015-Jan-20 14:33N 58°37' E 016°58'71 8.8
2015-Jan-20 06:30N 57°27' E 017°21'1111.1
2015-Jan-20 05:32N 57°16' E 017°18'119 9.7
2015-Jan-19 17:20N 55°36' E 015°22'910.8
2015-Jan-19 16:33N 55°32' E 015°08'1110.7
2015-Jan-19 15:33N 55°27' E 014°52'1110.7
2015-Jan-19 14:33N 55°21' E 014°36'1111.2
2015-Jan-19 13:33N 55°12' E 014°24'1110.9
2015-Jan-19 12:33N 55°04' E 014°11'1110.7
2015-Jan-19 11:33N 54°59' E 013°55'1110.5
2015-Jan-19 10:33N 54°56' E 013°37'2110.0
2015-Jan-19 08:27N 54°48' E 013°03'9 9.7
2015-Jan-19 07:33N 54°44' E 012°50'1010.0
2015-Jan-19 06:33N 54°38' E 012°36'10 9.8
2015-Jan-19 05:33N 54°33' E 012°22'10 9.6
2015-Jan-19 04:33N 54°26' E 012°11'10 9.5
2015-Jan-19 03:33N 54°25' E 011°55'1010.0
2015-Jan-19 02:33N 54°27' E 011°38'1010.1
2015-Jan-19 01:33N 54°31' E 011°23'10 9.6
2015-Jan-19 00:33N 54°35' E 011°07'10 9.9
2015-Jan-18 23:33N 54°34' E 010°50'1010.4
2015-Jan-18 22:33N 54°33' E 010°32'  

Dump ship's entire track history